createdAt,value
2023-02-12T00:00:53.224Z,14.20
2023-02-12T00:03:19.959Z,14.20
2023-02-12T00:05:46.599Z,14.20
2023-02-12T00:08:16.241Z,14.20
2023-02-12T00:10:44.461Z,14.20
2023-02-12T00:13:12.115Z,14.20
2023-02-12T00:15:40.571Z,14.20
2023-02-12T00:18:07.269Z,14.20
2023-02-12T00:20:34.277Z,14.20
2023-02-12T00:23:01.109Z,14.20
2023-02-12T00:25:27.835Z,14.20
2023-02-12T00:27:54.747Z,14.20
2023-02-12T00:30:21.586Z,14.20
2023-02-12T00:32:48.289Z,14.20
2023-02-12T00:35:15.146Z,14.20
2023-02-12T00:37:41.833Z,14.10
2023-02-12T00:40:09.078Z,14.10
2023-02-12T00:42:35.771Z,14.10
2023-02-12T00:45:02.524Z,14.20
2023-02-12T00:47:29.162Z,14.20
2023-02-12T00:49:55.800Z,14.20
2023-02-12T00:52:22.448Z,14.20
2023-02-12T00:54:49.145Z,14.20
2023-02-12T00:57:15.897Z,14.20
2023-02-12T00:59:42.933Z,14.20
2023-02-12T01:02:09.780Z,14.20
2023-02-12T01:04:36.651Z,14.20
2023-02-12T01:07:03.292Z,14.20
2023-02-12T01:09:30.097Z,14.30
2023-02-12T01:11:56.861Z,14.30
2023-02-12T01:14:23.562Z,14.30
2023-02-12T01:16:50.221Z,14.30
2023-02-12T01:19:17.074Z,14.30
2023-02-12T01:21:43.856Z,14.30
2023-02-12T01:24:10.585Z,14.30
2023-02-12T01:26:37.530Z,14.30
2023-02-12T01:29:06.881Z,14.30
2023-02-12T01:31:37.948Z,14.40
2023-02-12T01:34:06.180Z,14.30
2023-02-12T01:36:33.183Z,14.30
2023-02-12T01:39:02.613Z,14.40
2023-02-12T01:41:32.439Z,14.40
2023-02-12T01:44:21.194Z,14.40
2023-02-12T01:46:50.591Z,14.40
2023-02-12T01:49:22.535Z,14.40
2023-02-12T01:51:53.072Z,14.40
2023-02-12T01:54:21.458Z,14.40
2023-02-12T01:56:48.920Z,14.30
2023-02-12T01:59:17.290Z,14.40
2023-02-12T02:01:44.648Z,14.30
2023-02-12T02:04:19.619Z,14.30
2023-02-12T02:06:56.583Z,14.30
2023-02-12T02:09:24.129Z,14.30
2023-02-12T02:12:09.204Z,14.30
2023-02-12T02:14:37.316Z,14.30
2023-02-12T02:17:07.084Z,14.30
2023-02-12T02:19:58.111Z,14.30
2023-02-12T02:22:49.552Z,14.30
2023-02-12T02:25:38.201Z,14.30
2023-02-12T02:28:13.755Z,14.30
2023-02-12T02:31:13.253Z,14.40
2023-02-12T02:33:57.635Z,14.30
2023-02-12T02:36:57.985Z,14.30
2023-02-12T02:39:33.192Z,14.30
2023-02-12T02:42:23.489Z,14.30
2023-02-12T02:44:58.256Z,14.30
2023-02-12T02:47:36.786Z,14.30
2023-02-12T02:50:10.748Z,14.30
2023-02-12T02:52:46.983Z,14.30
2023-02-12T02:55:18.409Z,14.30
2023-02-12T02:57:57.125Z,14.30
2023-02-12T03:00:34.673Z,14.30
2023-02-12T03:03:26.254Z,14.30
2023-02-12T03:05:56.700Z,14.30
2023-02-12T03:08:36.093Z,14.30
2023-02-12T03:11:17.302Z,14.30
2023-02-12T03:13:50.993Z,14.20
2023-02-12T03:16:24.725Z,14.30
2023-02-12T03:19:18.445Z,14.30
2023-02-12T03:21:51.900Z,14.30
2023-02-12T03:24:50.965Z,14.30
2023-02-12T03:27:23.000Z,14.30
2023-02-12T03:29:49.799Z,14.20
2023-02-12T03:33:01.498Z,14.30
2023-02-12T03:35:55.751Z,14.30
2023-02-12T03:38:44.394Z,14.30
2023-02-12T03:41:17.201Z,14.40
2023-02-12T03:43:52.635Z,14.60
2023-02-12T03:46:43.471Z,14.60
2023-02-12T03:49:46.119Z,14.70
2023-02-12T03:52:12.860Z,14.70
2023-02-12T03:54:39.688Z,14.80
2023-02-12T03:57:31.087Z,14.80
2023-02-12T03:59:59.022Z,14.70
2023-02-12T04:02:26.038Z,14.80
2023-02-12T04:04:52.804Z,14.70
2023-02-12T04:07:19.700Z,14.80
2023-02-12T04:09:46.576Z,14.80
2023-02-12T04:12:13.200Z,14.80
2023-02-12T04:14:59.877Z,14.90
2023-02-12T04:18:11.928Z,15.00
2023-02-12T04:20:41.973Z,15.10
2023-02-12T04:23:45.986Z,15.10
2023-02-12T04:26:24.620Z,15.20
2023-02-12T04:28:51.179Z,15.30
2023-02-12T04:31:31.117Z,15.30
2023-02-12T04:34:13.916Z,15.30
2023-02-12T04:36:49.211Z,15.30
2023-02-12T04:39:21.265Z,15.30
2023-02-12T04:41:48.077Z,15.30
2023-02-12T04:44:22.430Z,15.20
2023-02-12T04:46:49.270Z,15.20
2023-02-12T04:49:18.346Z,15.20
2023-02-12T04:51:46.401Z,15.20
2023-02-12T04:54:14.860Z,15.20
2023-02-12T04:56:41.868Z,15.10
2023-02-12T04:59:09.340Z,15.10
2023-02-12T05:01:37.856Z,15.10
2023-02-12T05:04:06.315Z,15.10
2023-02-12T05:06:36.159Z,15.10
2023-02-12T05:09:04.317Z,15.20
2023-02-12T05:11:31.043Z,15.20
2023-02-12T05:14:00.145Z,15.20
2023-02-12T05:16:26.855Z,15.20
2023-02-12T05:18:53.586Z,15.20
2023-02-12T05:21:20.387Z,15.20
2023-02-12T05:23:47.031Z,15.20
2023-02-12T05:26:16.555Z,15.20
2023-02-12T05:28:43.238Z,15.20
2023-02-12T05:31:12.883Z,15.20
2023-02-12T05:33:42.691Z,15.30
2023-02-12T05:36:14.846Z,15.30
2023-02-12T05:38:41.784Z,15.30
2023-02-12T05:41:11.002Z,15.30
2023-02-12T05:43:37.944Z,15.50
2023-02-12T05:46:06.614Z,15.60
2023-02-12T05:51:12.900Z,15.70
2023-02-12T05:53:40.668Z,15.90
2023-02-12T05:58:40.289Z,16.00
2023-02-12T06:01:16.603Z,16.10
2023-02-12T06:08:39.211Z,16.20
2023-02-12T06:11:13.697Z,16.40
2023-02-12T06:13:41.798Z,16.40
2023-02-12T06:16:17.409Z,16.50
2023-02-12T06:18:44.209Z,16.50
2023-02-12T06:21:10.958Z,16.50
2023-02-12T06:23:37.652Z,16.60
2023-02-12T06:26:04.590Z,16.60
2023-02-12T06:28:31.262Z,16.60
2023-02-12T06:30:58.056Z,16.70
2023-02-12T06:33:24.936Z,16.70
2023-02-12T06:35:51.725Z,16.70
2023-02-12T06:38:18.565Z,16.70
2023-02-12T06:40:45.226Z,16.70
2023-02-12T06:43:13.081Z,16.70
2023-02-12T06:45:39.817Z,16.80
2023-02-12T06:48:06.616Z,16.80
2023-02-12T07:22:37.033Z,16.80
2023-02-12T07:25:03.812Z,16.50
2023-02-12T07:27:30.682Z,16.30
2023-02-12T07:29:57.343Z,16.10
2023-02-12T07:32:24.047Z,15.90
2023-02-12T07:34:50.791Z,15.80
2023-02-12T07:37:22.539Z,15.70
2023-02-12T07:39:50.103Z,15.60
2023-02-12T07:42:17.813Z,15.50
2023-02-12T07:44:45.548Z,15.40
2023-02-12T07:47:12.256Z,15.30
2023-02-12T07:49:39.041Z,15.20
2023-02-12T07:52:05.741Z,15.20
2023-02-12T07:54:32.544Z,15.10
2023-02-12T07:57:00.618Z,15.10
2023-02-12T07:59:27.366Z,15.00
2023-02-12T08:01:56.299Z,14.90
2023-02-12T08:04:25.598Z,14.90
2023-02-12T08:06:54.786Z,14.90
2023-02-12T08:09:27.575Z,14.80
2023-02-12T08:11:54.958Z,14.80
2023-02-12T08:14:22.623Z,14.80
2023-02-12T08:16:50.808Z,14.70
2023-02-12T08:19:22.532Z,14.70
2023-02-12T08:21:53.471Z,14.70
2023-02-12T08:24:22.251Z,14.60
2023-02-12T08:26:49.700Z,14.60
2023-02-12T08:29:19.658Z,14.60
2023-02-12T08:31:49.178Z,14.50
2023-02-12T08:34:32.079Z,14.50
2023-02-12T08:36:59.413Z,14.40
2023-02-12T08:39:29.407Z,14.40
2023-02-12T08:41:57.435Z,14.40
2023-02-12T08:44:25.013Z,14.40
2023-02-12T08:46:52.959Z,14.40
2023-02-12T08:49:22.482Z,14.40
2023-02-12T08:51:52.591Z,14.40
2023-02-12T08:54:22.542Z,14.30
2023-02-12T08:56:49.744Z,14.30
2023-02-12T08:59:17.234Z,14.30
2023-02-12T09:01:44.635Z,14.30
2023-02-12T09:04:21.737Z,14.30
2023-02-12T09:06:49.768Z,14.30
2023-02-12T09:09:16.689Z,14.30
2023-02-12T09:11:44.687Z,14.30
2023-02-12T09:14:14.152Z,14.20
2023-02-12T09:16:41.286Z,14.20
2023-02-12T09:19:09.431Z,14.30
2023-02-12T09:21:36.315Z,14.20
2023-02-12T09:24:03.703Z,14.20
2023-02-12T09:26:31.190Z,14.20
2023-02-12T09:28:58.359Z,14.20
2023-02-12T09:31:28.157Z,14.20
2023-02-12T09:34:00.770Z,14.10
2023-02-12T09:36:27.930Z,14.10
2023-02-12T09:38:54.890Z,14.20
2023-02-12T09:41:32.918Z,14.20
2023-02-12T09:44:08.701Z,14.20
2023-02-12T09:46:53.375Z,14.20
2023-02-12T09:50:07.761Z,14.10
2023-02-12T09:52:35.253Z,14.20
2023-02-12T10:36:39.020Z,14.20
2023-02-12T10:39:45.551Z,14.50
2023-02-12T10:42:18.022Z,14.60
2023-02-12T10:44:44.776Z,14.70
2023-02-12T10:47:18.909Z,14.80
2023-02-12T10:49:56.631Z,14.90
2023-02-12T10:52:32.209Z,15.00
2023-02-12T10:54:58.920Z,15.10
2023-02-12T10:57:29.563Z,15.20
2023-02-12T11:00:14.331Z,15.20
2023-02-12T11:03:20.277Z,15.30
2023-02-12T11:05:47.798Z,15.40
2023-02-12T11:08:37.178Z,15.40
2023-02-12T11:11:11.925Z,15.40
2023-02-12T11:13:41.629Z,15.50
2023-02-12T11:16:09.277Z,15.50
2023-02-12T11:18:37.370Z,15.50
2023-02-12T11:28:58.865Z,15.60
2023-02-12T11:31:35.204Z,15.80
2023-02-12T11:34:19.690Z,15.80
2023-02-12T11:36:49.354Z,15.80
2023-02-12T11:39:36.303Z,15.80
2023-02-12T11:42:06.766Z,15.80
2023-02-12T11:44:38.470Z,15.70
2023-02-12T11:47:10.506Z,15.70
2023-02-12T11:49:48.497Z,15.70
2023-02-12T11:52:30.336Z,15.60
2023-02-12T11:55:04.932Z,15.60
2023-02-12T11:57:45.053Z,15.50
2023-02-12T12:00:35.574Z,15.60
2023-02-12T12:03:33.546Z,15.60
2023-02-12T12:06:29.671Z,15.60
2023-02-12T12:09:05.381Z,15.50
2023-02-12T12:12:14.019Z,15.20
2023-02-12T12:15:32.126Z,15.00
2023-02-12T12:18:43.328Z,14.90
2023-02-12T12:21:20.866Z,14.90
2023-02-12T12:23:59.203Z,15.00
2023-02-12T12:26:29.007Z,15.00
2023-02-12T12:29:10.530Z,15.00
2023-02-12T12:31:46.134Z,15.10
2023-02-12T12:34:17.212Z,15.10
2023-02-12T12:37:12.013Z,15.10
2023-02-12T12:39:47.699Z,15.20
2023-02-12T12:42:20.051Z,15.20
2023-02-12T12:45:08.599Z,15.20
2023-02-12T12:47:38.220Z,15.20
2023-02-12T12:50:21.482Z,15.20
2023-02-12T12:53:11.934Z,15.20
2023-02-12T12:55:44.249Z,15.20
2023-02-12T12:58:52.149Z,15.30
2023-02-12T13:01:44.826Z,15.20
2023-02-12T13:04:33.157Z,15.20
2023-02-12T13:07:24.638Z,15.20
2023-02-12T13:10:14.111Z,15.20
2023-02-12T13:12:43.954Z,15.10
2023-02-12T13:15:30.476Z,15.10
2023-02-12T13:18:09.471Z,15.10
2023-02-12T13:20:54.812Z,15.10
2023-02-12T13:23:33.699Z,15.10
2023-02-12T13:26:06.275Z,15.10
2023-02-12T13:28:42.142Z,15.10
2023-02-12T13:31:32.166Z,15.10
2023-02-12T13:34:03.803Z,15.20
2023-02-12T13:36:30.664Z,15.20
2023-02-12T13:39:05.176Z,15.20
2023-02-12T13:41:32.673Z,15.20
2023-02-12T13:44:35.184Z,15.20
2023-02-12T13:47:23.365Z,15.20
2023-02-12T13:50:15.434Z,15.10
2023-02-12T13:58:31.788Z,15.10
2023-02-12T14:01:01.135Z,15.10
2023-02-12T14:03:29.999Z,15.00
2023-02-12T14:06:11.217Z,15.00
2023-02-12T14:08:56.982Z,15.00
2023-02-12T14:11:25.994Z,14.90
2023-02-12T14:14:00.153Z,14.90
2023-02-12T14:16:29.909Z,14.90
2023-02-12T14:19:33.893Z,14.90
2023-02-12T14:22:01.806Z,14.90
2023-02-12T14:24:37.684Z,14.90
2023-02-12T14:27:17.505Z,14.90
2023-02-12T14:30:12.290Z,14.90
2023-02-12T14:32:45.287Z,14.90
2023-02-12T14:35:29.830Z,14.90
2023-02-12T14:38:01.222Z,14.90
2023-02-12T14:40:44.008Z,14.90
2023-02-12T14:43:54.887Z,14.90
2023-02-12T14:46:24.754Z,14.90
2023-02-12T14:49:04.877Z,14.90
2023-02-12T14:51:51.959Z,14.90
2023-02-12T14:54:45.649Z,14.90
2023-02-12T14:57:35.043Z,14.80
2023-02-12T15:00:34.485Z,14.80
2023-02-12T15:03:16.740Z,14.90
2023-02-12T15:05:59.848Z,14.80
2023-02-12T15:08:39.889Z,14.90
2023-02-12T15:11:29.507Z,14.90
2023-02-12T15:14:21.378Z,14.90
2023-02-12T15:16:53.830Z,15.00
2023-02-12T15:19:38.364Z,15.00
2023-02-12T15:22:38.675Z,15.00
2023-02-12T15:25:15.132Z,15.10
2023-02-12T15:27:44.563Z,15.10
2023-02-12T15:30:30.450Z,15.10
2023-02-12T15:32:59.364Z,15.20
2023-02-12T15:35:34.509Z,15.20
2023-02-12T15:38:01.941Z,15.30
2023-02-12T15:40:30.632Z,15.30
2023-02-12T15:43:00.054Z,15.30
2023-02-12T15:45:29.509Z,15.40
2023-02-12T15:48:18.240Z,15.40
2023-02-12T15:53:15.810Z,15.40
2023-02-12T15:55:45.704Z,15.50
2023-02-12T15:58:22.581Z,15.60
2023-02-12T16:00:49.589Z,15.60
2023-02-12T16:03:28.170Z,15.60
2023-02-12T16:05:56.967Z,15.60
2023-02-12T16:08:24.980Z,15.60
2023-02-12T16:10:53.708Z,15.60
2023-02-12T16:13:31.305Z,15.60
2023-02-12T16:16:12.988Z,15.60
2023-02-12T16:18:41.912Z,15.60
2023-02-12T16:21:18.792Z,15.60
2023-02-12T16:23:50.933Z,15.60
2023-02-12T16:26:24.241Z,15.50
2023-02-12T16:28:56.801Z,15.50
2023-02-12T16:31:25.918Z,15.60
2023-02-12T16:33:56.053Z,15.60
2023-02-12T16:36:22.765Z,15.60
2023-02-12T16:38:54.750Z,15.60
2023-02-12T16:41:28.100Z,15.60
2023-02-12T16:44:00.546Z,15.50
2023-02-12T16:46:29.072Z,15.60
2023-02-12T16:48:58.896Z,15.60
2023-02-12T16:51:28.490Z,15.60
2023-02-12T16:53:57.526Z,15.60
2023-02-12T16:56:27.397Z,15.60
2023-02-12T16:58:57.678Z,15.60
2023-02-12T17:01:33.490Z,15.60
2023-02-12T17:06:31.363Z,15.60
2023-02-12T17:08:59.283Z,15.50
2023-02-12T17:11:28.016Z,15.40
2023-02-12T17:13:55.885Z,15.20
2023-02-12T17:16:31.753Z,15.00
2023-02-12T17:19:00.752Z,14.90
2023-02-12T17:21:40.249Z,14.70
2023-02-12T17:24:19.986Z,14.60
2023-02-12T17:26:50.618Z,14.60
2023-02-12T17:29:18.861Z,14.70
2023-02-12T17:31:46.283Z,14.70
2023-02-12T17:34:13.144Z,14.70
2023-02-12T17:36:40.544Z,14.70
2023-02-12T17:39:10.455Z,14.70
2023-02-12T17:41:37.116Z,14.70
2023-02-12T17:44:04.085Z,14.80
2023-02-12T17:46:32.075Z,14.80
2023-02-12T17:48:59.199Z,14.80
2023-02-12T17:51:26.165Z,14.80
2023-02-12T17:53:53.206Z,14.90
2023-02-12T17:56:22.183Z,15.00
2023-02-12T17:58:49.229Z,15.10
2023-02-12T18:01:18.441Z,15.10
2023-02-12T18:03:45.376Z,15.20
2023-02-12T18:06:16.284Z,15.20
2023-02-12T18:08:43.547Z,15.20
2023-02-12T18:11:11.664Z,15.10
2023-02-12T18:13:38.435Z,15.10
2023-02-12T18:16:09.929Z,15.00
2023-02-12T18:18:40.052Z,14.90
2023-02-12T18:21:11.551Z,14.90
2023-02-12T18:23:38.609Z,14.80
2023-02-12T18:26:10.139Z,14.80
2023-02-12T18:28:37.733Z,14.80
2023-02-12T18:31:05.814Z,14.80
2023-02-12T18:33:33.519Z,14.80
2023-02-12T18:36:03.280Z,14.70
2023-02-12T18:38:30.633Z,14.60
2023-02-12T18:40:57.815Z,14.60
2023-02-12T18:43:24.910Z,14.60
2023-02-12T18:45:51.734Z,14.60
2023-02-12T18:48:18.409Z,14.50
2023-02-12T18:50:45.254Z,14.50
2023-02-12T18:53:12.022Z,14.50
2023-02-12T18:55:39.868Z,14.50
2023-02-12T18:58:06.638Z,14.40
2023-02-12T19:00:33.534Z,14.40
2023-02-12T19:03:00.374Z,14.30
2023-02-12T19:05:27.184Z,14.40
2023-02-12T19:07:54.313Z,14.30
2023-02-12T19:10:22.202Z,14.30
2023-02-12T19:12:49.089Z,14.40
2023-02-12T19:15:18.378Z,14.30
2023-02-12T19:17:46.113Z,14.30
2023-02-12T19:20:15.699Z,14.30
2023-02-12T19:22:45.285Z,14.30
2023-02-12T19:25:13.009Z,14.20
2023-02-12T19:27:39.844Z,14.20
2023-02-12T19:30:07.535Z,14.20
2023-02-12T19:32:36.059Z,14.20
2023-02-12T19:35:02.767Z,14.20
2023-02-12T19:37:29.448Z,14.20
2023-02-12T19:39:56.236Z,14.20
2023-02-12T19:42:22.974Z,14.10
2023-02-12T19:44:49.875Z,14.20
2023-02-12T19:47:16.649Z,14.10
2023-02-12T19:49:43.660Z,14.20
2023-02-12T19:52:10.467Z,14.10
2023-02-12T19:54:37.147Z,14.10
2023-02-12T19:57:08.940Z,14.00
2023-02-12T19:59:36.255Z,14.00
2023-02-12T20:02:03.859Z,14.00
2023-02-12T20:04:31.667Z,14.00
2023-02-12T20:06:58.428Z,14.00
2023-02-12T20:09:25.691Z,14.00
2023-02-12T20:11:53.284Z,14.00
2023-02-12T20:14:22.525Z,14.00
2023-02-12T20:16:53.886Z,14.00
2023-02-12T20:19:24.192Z,14.00
2023-02-12T20:21:55.777Z,14.00
2023-02-12T20:24:32.162Z,14.00
2023-02-12T20:27:00.945Z,14.00
2023-02-12T20:29:28.933Z,14.00
2023-02-12T20:31:56.276Z,14.00
2023-02-12T20:34:23.296Z,14.00
2023-02-12T20:36:50.186Z,14.00
2023-02-12T20:39:19.299Z,14.10
2023-02-12T20:41:46.766Z,14.10
2023-02-12T20:44:16.695Z,14.10
2023-02-12T20:46:48.119Z,14.10
2023-02-12T20:49:16.714Z,14.10
2023-02-12T20:51:44.224Z,14.00
2023-02-12T20:54:11.846Z,14.00
2023-02-12T20:56:38.925Z,14.00
2023-02-12T20:59:06.761Z,14.00
2023-02-12T21:01:38.925Z,14.00
2023-02-12T21:04:08.967Z,14.10
2023-02-12T21:06:36.412Z,14.10
2023-02-12T21:09:03.253Z,14.10
2023-02-12T21:11:32.337Z,14.10
2023-02-12T21:14:18.382Z,14.10
2023-02-12T21:16:45.428Z,14.00
2023-02-12T21:19:14.075Z,14.00
2023-02-12T21:21:42.006Z,14.00
2023-02-12T21:24:11.721Z,14.00
2023-02-12T21:26:38.442Z,14.00
2023-02-12T21:29:05.396Z,14.00
2023-02-12T21:31:39.962Z,14.00
2023-02-12T21:34:11.089Z,14.00
2023-02-12T21:36:39.480Z,14.00
2023-02-12T21:39:09.990Z,14.00
2023-02-12T21:41:39.513Z,14.00
2023-02-12T21:44:10.685Z,13.90
2023-02-12T21:46:37.796Z,13.90
2023-02-12T21:49:05.584Z,13.90
2023-02-12T21:51:38.248Z,13.90
2023-02-12T21:54:08.185Z,13.80
2023-02-12T21:56:39.679Z,13.80
2023-02-12T21:59:08.668Z,13.80
2023-02-12T22:01:38.703Z,13.80
2023-02-12T22:04:06.871Z,13.80
2023-02-12T22:06:37.516Z,13.80
2023-02-12T22:09:09.137Z,13.80
2023-02-12T22:11:38.023Z,13.80
2023-02-12T22:14:06.736Z,13.80
2023-02-12T22:16:34.902Z,13.80
2023-02-12T22:19:02.454Z,13.80
2023-02-12T22:21:35.045Z,13.80
2023-02-12T22:24:03.870Z,13.70
2023-02-12T22:26:31.715Z,13.70
2023-02-12T22:29:01.548Z,13.70
2023-02-12T22:31:31.330Z,13.70
2023-02-12T22:34:05.577Z,13.70
2023-02-12T22:36:35.976Z,13.70
2023-02-12T22:39:05.657Z,13.70
2023-02-12T22:41:32.930Z,13.70
2023-02-12T22:44:01.095Z,13.70
2023-02-12T22:46:28.412Z,13.70
2023-02-12T22:48:56.338Z,13.70
2023-02-12T22:51:25.912Z,13.60
2023-02-12T22:53:53.123Z,13.60
2023-02-12T22:56:20.030Z,13.60
2023-02-12T22:58:47.119Z,13.60
2023-02-12T23:01:17.436Z,13.60
2023-02-12T23:03:45.686Z,13.60
2023-02-12T23:06:15.743Z,13.60
2023-02-12T23:08:43.137Z,13.60
2023-02-12T23:11:10.295Z,13.60
2023-02-12T23:13:38.374Z,13.60
2023-02-12T23:16:05.557Z,13.60
2023-02-12T23:18:32.415Z,13.60
2023-02-12T23:21:00.032Z,13.60
2023-02-12T23:23:27.222Z,13.60
2023-02-12T23:25:54.698Z,13.60
2023-02-12T23:28:22.825Z,13.60
2023-02-12T23:30:51.165Z,13.50
2023-02-12T23:33:19.292Z,13.50
2023-02-12T23:35:47.041Z,13.50
2023-02-12T23:38:14.392Z,13.60
2023-02-12T23:40:42.058Z,13.50
2023-02-12T23:43:09.118Z,13.50
2023-02-12T23:45:35.910Z,13.50
2023-02-12T23:48:02.620Z,13.50
2023-02-12T23:50:29.449Z,13.50
2023-02-12T23:52:56.342Z,13.50
2023-02-12T23:55:23.056Z,13.50
2023-02-12T23:57:50.445Z,13.50
